createdAt,value
2019-03-03T00:01:31.706Z,9.17
2019-03-03T00:03:57.860Z,9.14
2019-03-03T00:06:24.101Z,9.16
2019-03-03T00:08:50.346Z,9.18
2019-03-03T00:11:16.461Z,9.21
2019-03-03T00:13:42.567Z,9.16
2019-03-03T00:16:08.768Z,9.23
2019-03-03T00:18:34.920Z,9.26
2019-03-03T00:21:08.768Z,9.19
2019-03-03T00:23:36.886Z,9.21
2019-03-03T00:26:03.452Z,9.22
2019-03-03T00:28:29.671Z,9.22
2019-03-03T00:30:55.766Z,9.17
2019-03-03T00:33:22.138Z,9.18
2019-03-03T00:35:48.477Z,9.24
2019-03-03T00:38:19.496Z,9.14
2019-03-03T00:40:47.917Z,9.21
2019-03-03T00:43:18.942Z,9.18
2019-03-03T00:46:03.407Z,9.13
2019-03-03T00:48:38.365Z,9.26
2019-03-03T00:51:14.392Z,9.32
2019-03-03T00:53:59.290Z,9.32
2019-03-03T00:56:33.333Z,9.37
2019-03-03T00:59:10.475Z,9.29
2019-03-03T01:01:41.418Z,9.34
2019-03-03T01:04:18.350Z,9.36
2019-03-03T01:06:46.572Z,9.43
2019-03-03T01:09:38.943Z,9.43
2019-03-03T01:12:17.062Z,9.47
2019-03-03T01:14:48.184Z,9.49
2019-03-03T01:17:28.494Z,9.47
2019-03-03T01:19:59.637Z,9.42
2019-03-03T01:22:30.337Z,9.38
2019-03-03T01:24:56.601Z,9.38
2019-03-03T01:27:24.108Z,9.40
2019-03-03T01:29:50.409Z,9.40
2019-03-03T01:32:16.614Z,9.34
2019-03-03T01:34:42.778Z,9.37
2019-03-03T01:37:08.991Z,9.50
2019-03-03T01:39:35.494Z,9.48
2019-03-03T01:42:02.603Z,9.50
2019-03-03T01:44:28.802Z,9.54
2019-03-03T01:46:54.971Z,9.60
2019-03-03T01:49:21.266Z,9.55
2019-03-03T01:51:47.443Z,9.52
2019-03-03T01:54:13.658Z,9.54
2019-03-03T01:56:39.884Z,9.55
2019-03-03T01:59:08.272Z,9.54
2019-03-03T02:01:34.347Z,9.58
2019-03-03T02:04:07.274Z,9.58
2019-03-03T02:06:36.801Z,9.65
2019-03-03T02:09:06.947Z,9.55
2019-03-03T02:11:33.755Z,9.55
2019-03-03T02:14:00.075Z,9.65
2019-03-03T02:16:26.227Z,9.48
2019-03-03T02:18:52.576Z,9.51
2019-03-03T02:21:18.759Z,9.51
2019-03-03T02:23:45.043Z,9.48
2019-03-03T02:26:14.494Z,9.45
2019-03-03T02:28:40.730Z,9.47
2019-03-03T02:31:07.226Z,9.45
2019-03-03T02:33:33.303Z,9.36
2019-03-03T02:35:59.655Z,9.40
2019-03-03T02:38:25.839Z,9.46
2019-03-03T02:40:52.010Z,9.52
2019-03-03T02:43:18.214Z,9.49
2019-03-03T02:45:44.426Z,9.47
2019-03-03T02:48:10.525Z,9.40
2019-03-03T02:50:37.423Z,9.41
2019-03-03T02:53:04.856Z,9.43
2019-03-03T02:55:30.990Z,9.42
2019-03-03T02:57:57.335Z,9.46
2019-03-03T03:00:23.797Z,9.47
2019-03-03T03:02:51.341Z,9.55
2019-03-03T03:05:24.098Z,9.50
2019-03-03T03:07:55.132Z,9.53
2019-03-03T03:10:26.004Z,9.44
2019-03-03T03:12:57.042Z,9.53
2019-03-03T03:15:30.847Z,9.54
2019-03-03T03:17:58.983Z,9.55
2019-03-03T03:20:33.009Z,9.58
2019-03-03T03:23:06.811Z,9.45
2019-03-03T03:25:34.816Z,9.34
2019-03-03T03:28:19.777Z,9.34
2019-03-03T03:30:48.900Z,9.47
2019-03-03T03:33:17.009Z,9.49
2019-03-03T03:35:45.129Z,9.37
2019-03-03T03:38:16.105Z,9.42
2019-03-03T03:40:44.346Z,9.53
2019-03-03T03:43:29.114Z,9.46
2019-03-03T03:46:09.372Z,9.51
2019-03-03T03:48:43.537Z,9.53
2019-03-03T03:51:26.939Z,9.59
2019-03-03T03:54:13.325Z,9.46
2019-03-03T03:56:47.263Z,9.45
2019-03-03T03:59:27.533Z,9.51
2019-03-03T04:01:56.047Z,9.48
2019-03-03T04:04:24.359Z,9.49
2019-03-03T04:06:52.566Z,9.56
2019-03-03T04:09:20.692Z,9.59
2019-03-03T04:11:48.734Z,9.57
2019-03-03T04:14:32.295Z,9.57
2019-03-03T04:17:00.476Z,9.43
2019-03-03T04:19:28.514Z,9.50
2019-03-03T04:21:59.330Z,9.34
2019-03-03T04:24:33.278Z,9.50
2019-03-03T04:27:04.327Z,9.47
2019-03-03T04:29:38.627Z,9.43
2019-03-03T04:32:09.367Z,9.48
2019-03-03T04:34:37.406Z,9.45
2019-03-03T04:37:21.919Z,9.53
2019-03-03T04:39:55.687Z,9.42
2019-03-03T04:42:38.756Z,9.41
2019-03-03T04:45:13.479Z,9.41
2019-03-03T04:47:47.508Z,9.35
2019-03-03T04:50:32.318Z,9.30
2019-03-03T04:53:09.511Z,9.38
2019-03-03T04:55:54.576Z,9.43
2019-03-03T04:58:22.799Z,9.38
2019-03-03T05:00:53.626Z,9.37
2019-03-03T05:03:36.984Z,9.40
2019-03-03T05:06:05.175Z,9.36
2019-03-03T05:08:33.256Z,9.36
2019-03-03T05:11:04.008Z,9.42
2019-03-03T05:13:32.023Z,9.35
2019-03-03T05:16:16.705Z,9.29
2019-03-03T05:18:44.801Z,9.37
2019-03-03T05:21:11.010Z,9.37
2019-03-03T05:23:37.337Z,9.38
2019-03-03T05:26:03.664Z,9.27
2019-03-03T05:28:30.009Z,9.37
2019-03-03T05:30:56.325Z,9.44
2019-03-03T05:33:23.522Z,9.46
2019-03-03T05:35:49.736Z,9.46
2019-03-03T05:38:15.940Z,9.48
2019-03-03T05:40:42.287Z,9.45
2019-03-03T05:43:08.397Z,9.43
2019-03-03T05:45:34.622Z,9.43
2019-03-03T05:48:00.746Z,9.44
2019-03-03T05:50:26.869Z,9.42
2019-03-03T05:52:53.197Z,9.36
2019-03-03T05:55:19.427Z,9.36
2019-03-03T05:57:45.542Z,9.38
2019-03-03T06:00:12.959Z,9.32
2019-03-03T06:02:39.267Z,9.27
2019-03-03T06:05:05.676Z,9.30
2019-03-03T06:07:32.010Z,9.26
2019-03-03T06:09:58.142Z,9.24
2019-03-03T06:12:24.412Z,9.36
2019-03-03T06:14:51.626Z,9.36
2019-03-03T06:17:17.958Z,9.27
2019-03-03T06:19:44.405Z,9.29
2019-03-03T06:22:10.517Z,9.33
2019-03-03T06:24:36.749Z,9.33
2019-03-03T06:27:03.078Z,9.41
2019-03-03T06:29:29.397Z,9.42
2019-03-03T06:31:55.470Z,9.40
2019-03-03T06:34:21.823Z,9.44
2019-03-03T06:36:48.110Z,9.46
2019-03-03T06:39:14.302Z,9.46
2019-03-03T06:41:40.522Z,9.41
2019-03-03T06:44:06.736Z,9.37
2019-03-03T06:46:32.928Z,9.38
2019-03-03T06:48:59.267Z,9.38
2019-03-03T06:51:25.459Z,9.39
2019-03-03T06:53:52.412Z,9.38
2019-03-03T06:56:18.610Z,9.39
2019-03-03T06:58:44.841Z,9.37
2019-03-03T07:01:11.039Z,9.50
2019-03-03T07:03:37.239Z,9.48
2019-03-03T07:06:03.459Z,9.42
2019-03-03T07:08:29.758Z,9.44
2019-03-03T07:10:56.093Z,9.35
2019-03-03T07:13:22.332Z,9.27
2019-03-03T07:15:48.455Z,9.27
2019-03-03T07:18:14.572Z,9.28
2019-03-03T07:20:41.061Z,9.31
2019-03-03T07:23:07.184Z,9.28
2019-03-03T07:25:33.402Z,9.31
2019-03-03T07:27:59.537Z,9.31
2019-03-03T07:30:25.755Z,9.28
2019-03-03T07:33:06.014Z,9.31
2019-03-03T07:35:32.199Z,9.26
2019-03-03T07:37:58.465Z,9.22
2019-03-03T07:40:24.773Z,9.25
2019-03-03T07:42:50.893Z,9.20
2019-03-03T07:45:17.000Z,9.20
2019-03-03T07:47:43.218Z,9.21
2019-03-03T07:50:10.466Z,9.14
2019-03-03T07:52:36.733Z,9.17
2019-03-03T07:55:05.726Z,9.14
2019-03-03T07:57:32.025Z,9.16
2019-03-03T07:59:58.271Z,9.14
2019-03-03T08:02:24.502Z,9.14
2019-03-03T08:04:50.865Z,9.15
2019-03-03T08:07:17.179Z,9.13
2019-03-03T08:09:43.444Z,9.10
2019-03-03T08:12:09.666Z,9.05
2019-03-03T08:14:35.814Z,9.01
2019-03-03T08:17:02.121Z,9.05
2019-03-03T08:19:28.425Z,9.03
2019-03-03T08:21:54.528Z,8.99
2019-03-03T08:24:22.885Z,9.00
2019-03-03T08:26:49.150Z,8.97
2019-03-03T08:29:15.265Z,9.02
2019-03-03T08:31:41.534Z,8.97
2019-03-03T08:34:07.855Z,9.02
2019-03-03T08:36:34.099Z,9.03
2019-03-03T08:39:00.313Z,8.99
2019-03-03T08:41:28.513Z,9.02
2019-03-03T08:43:56.826Z,9.01
2019-03-03T08:46:24.956Z,9.04
2019-03-03T08:49:02.255Z,9.01
2019-03-03T08:51:36.473Z,9.02
2019-03-03T08:54:21.199Z,9.02
2019-03-03T08:56:52.967Z,9.01
2019-03-03T08:59:24.281Z,9.00
2019-03-03T09:02:04.364Z,9.01
2019-03-03T09:04:32.396Z,8.97
2019-03-03T09:07:00.563Z,8.99
2019-03-03T09:09:28.700Z,8.99
2019-03-03T09:12:11.887Z,8.93
2019-03-03T09:14:42.929Z,8.94
2019-03-03T09:17:26.030Z,8.95
2019-03-03T09:19:57.301Z,8.94
2019-03-03T09:22:28.339Z,8.98
2019-03-03T09:25:02.359Z,8.94
2019-03-03T09:27:47.477Z,8.96
2019-03-03T09:30:30.821Z,8.99
2019-03-03T09:33:00.050Z,8.97
2019-03-03T09:35:46.069Z,9.03
2019-03-03T09:38:16.924Z,9.01
2019-03-03T09:40:50.905Z,9.04
2019-03-03T09:43:18.992Z,9.07
2019-03-03T09:45:53.063Z,9.06
2019-03-03T09:48:29.903Z,9.06
2019-03-03T09:51:00.661Z,9.04
2019-03-03T09:53:34.856Z,9.07
2019-03-03T09:56:08.695Z,9.09
2019-03-03T09:58:39.693Z,9.08
2019-03-03T10:01:07.886Z,9.08
2019-03-03T10:03:38.652Z,9.08
2019-03-03T10:06:12.777Z,9.08
2019-03-03T10:08:40.857Z,9.09
2019-03-03T10:11:24.272Z,9.08
2019-03-03T10:13:52.572Z,9.09
2019-03-03T10:16:29.878Z,9.08
2019-03-03T10:19:06.960Z,9.09
2019-03-03T10:21:31.063Z,9.07
2019-03-03T10:24:08.367Z,9.02
2019-03-03T10:26:54.745Z,9.01
2019-03-03T10:29:35.144Z,9.08
2019-03-03T10:32:20.270Z,9.16
2019-03-03T10:34:57.478Z,9.24
2019-03-03T10:37:42.391Z,9.24
2019-03-03T10:40:17.609Z,9.20
2019-03-03T10:42:48.678Z,9.23
2019-03-03T10:45:23.416Z,9.26
2019-03-03T10:47:57.775Z,9.30
2019-03-03T10:50:25.965Z,9.32
2019-03-03T10:52:57.153Z,9.35
2019-03-03T10:55:40.321Z,9.37
2019-03-03T10:58:11.481Z,9.37
2019-03-03T11:00:42.566Z,9.34
2019-03-03T11:03:16.682Z,9.37
2019-03-03T11:06:02.639Z,9.37
2019-03-03T11:08:36.863Z,9.34
2019-03-03T11:11:05.656Z,9.42
2019-03-03T11:13:33.871Z,9.40
2019-03-03T11:16:18.927Z,9.43
2019-03-03T11:18:55.958Z,9.41
2019-03-03T11:21:20.306Z,9.46
2019-03-03T11:23:48.345Z,9.48
2019-03-03T11:26:19.652Z,9.54
2019-03-03T11:29:04.955Z,9.59
2019-03-03T11:31:36.103Z,9.61
2019-03-03T11:34:04.592Z,9.60
2019-03-03T11:36:32.851Z,9.62
2019-03-03T11:39:04.129Z,9.66
2019-03-03T11:41:40.348Z,9.72
2019-03-03T11:44:17.538Z,9.70
2019-03-03T11:46:54.943Z,9.74
2019-03-03T11:49:41.488Z,9.72
2019-03-03T11:52:09.796Z,9.70
2019-03-03T11:57:21.961Z,9.74
2019-03-03T11:59:54.189Z,9.68
2019-03-03T12:02:22.319Z,9.71
2019-03-03T12:04:50.496Z,9.68
2019-03-03T12:07:36.860Z,9.67
2019-03-03T12:10:10.370Z,9.67
2019-03-03T12:12:41.267Z,9.59
2019-03-03T12:15:25.793Z,9.62
2019-03-03T12:18:02.909Z,9.57
2019-03-03T12:20:47.834Z,9.60
2019-03-03T12:23:17.201Z,9.58
2019-03-03T12:26:01.916Z,9.63
2019-03-03T12:28:41.829Z,9.65
2019-03-03T12:31:18.802Z,9.69
2019-03-03T12:33:47.930Z,9.69
2019-03-03T12:36:31.313Z,9.69
2019-03-03T12:39:02.073Z,9.74
2019-03-03T12:41:32.118Z,9.77
2019-03-03T12:44:16.460Z,9.86
2019-03-03T12:46:47.647Z,9.89
2019-03-03T12:49:32.459Z,9.92
2019-03-03T12:52:12.837Z,10.00
2019-03-03T12:54:50.101Z,10.04
2019-03-03T12:57:34.862Z,10.05
2019-03-03T13:00:03.250Z,10.00
2019-03-03T13:02:48.486Z,9.94
2019-03-03T13:05:19.500Z,9.92
2019-03-03T13:07:47.665Z,9.97
2019-03-03T13:10:18.658Z,9.97
2019-03-03T13:12:58.957Z,10.01
2019-03-03T13:15:43.759Z,10.03
2019-03-03T13:18:28.762Z,10.06
2019-03-03T13:20:59.887Z,10.07
2019-03-03T13:23:33.902Z,10.11
2019-03-03T13:26:20.140Z,10.14
2019-03-03T13:29:06.646Z,10.13
2019-03-03T13:31:40.820Z,10.15
2019-03-03T13:34:27.207Z,10.17
2019-03-03T13:36:55.348Z,10.21
2019-03-03T13:39:41.582Z,10.27
2019-03-03T13:42:10.694Z,10.28
2019-03-03T13:44:37.156Z,10.23
2019-03-03T13:47:03.534Z,10.25
2019-03-03T13:49:29.910Z,10.25
2019-03-03T13:51:56.272Z,10.21
2019-03-03T13:54:22.715Z,10.21
2019-03-03T13:56:48.997Z,10.22
2019-03-03T13:59:15.366Z,10.19
2019-03-03T14:01:43.414Z,10.19
2019-03-03T14:04:09.864Z,10.16
2019-03-03T14:06:36.297Z,10.18
2019-03-03T14:09:05.598Z,10.11
2019-03-03T14:11:32.669Z,10.08
2019-03-03T14:13:58.919Z,10.12
2019-03-03T14:16:25.293Z,10.09
2019-03-03T14:18:51.708Z,10.11
2019-03-03T14:21:18.253Z,10.11
2019-03-03T14:23:44.604Z,10.07
2019-03-03T14:26:10.861Z,10.04
2019-03-03T14:28:37.109Z,10.10
2019-03-03T14:31:03.387Z,10.09
2019-03-03T14:33:29.548Z,10.12
2019-03-03T14:35:55.712Z,10.06
2019-03-03T14:38:22.131Z,10.14
2019-03-03T14:40:48.590Z,10.15
2019-03-03T14:43:14.923Z,10.13
2019-03-03T14:45:41.515Z,10.15
2019-03-03T14:48:07.857Z,10.09
2019-03-03T14:50:34.172Z,10.07
2019-03-03T14:53:00.637Z,10.01
2019-03-03T14:55:26.751Z,10.04
2019-03-03T14:57:53.038Z,10.02
2019-03-03T15:00:30.636Z,9.99
2019-03-03T15:02:58.793Z,10.01
2019-03-03T15:05:25.194Z,9.98
2019-03-03T15:07:51.745Z,9.99
2019-03-03T15:10:18.081Z,9.99
2019-03-03T15:12:44.399Z,10.04
2019-03-03T15:15:18.927Z,9.94
2019-03-03T15:17:45.383Z,9.96
2019-03-03T15:20:11.714Z,9.95
2019-03-03T15:22:38.163Z,9.94
2019-03-03T15:25:07.483Z,9.96
2019-03-03T15:27:33.882Z,9.92
2019-03-03T15:30:00.403Z,9.90
2019-03-03T15:32:26.887Z,9.91
2019-03-03T15:34:53.282Z,9.93
2019-03-03T15:37:19.740Z,9.92
2019-03-03T15:39:46.057Z,9.89
2019-03-03T15:42:12.446Z,9.88
2019-03-03T15:44:38.702Z,9.87
2019-03-03T15:47:05.110Z,9.86
2019-03-03T15:49:31.259Z,9.86
2019-03-03T15:51:57.621Z,9.81
2019-03-03T15:54:24.212Z,9.82
2019-03-03T15:56:50.574Z,9.89
2019-03-03T15:59:17.011Z,9.90
2019-03-03T16:01:43.717Z,9.93
2019-03-03T16:04:10.278Z,9.98
2019-03-03T16:06:36.612Z,9.97
2019-03-03T16:09:05.112Z,10.01
2019-03-03T16:11:33.202Z,10.04
2019-03-03T16:13:59.339Z,10.11
2019-03-03T16:16:25.564Z,10.03
2019-03-03T16:18:52.237Z,10.07
2019-03-03T16:21:18.599Z,10.13
2019-03-03T16:23:44.908Z,10.15
2019-03-03T16:26:11.382Z,10.13
2019-03-03T16:28:37.509Z,10.23
2019-03-03T16:31:03.828Z,10.25
2019-03-03T16:33:30.061Z,10.18
2019-03-03T16:35:56.562Z,10.22
2019-03-03T16:38:22.935Z,10.29
2019-03-03T16:40:49.274Z,10.28
2019-03-03T16:43:15.487Z,10.33
2019-03-03T16:45:41.736Z,10.30
2019-03-03T16:48:07.829Z,10.32
2019-03-03T16:50:34.188Z,10.35
2019-03-03T16:53:00.494Z,10.38
2019-03-03T16:55:26.862Z,10.37
2019-03-03T16:57:53.187Z,10.46
2019-03-03T17:00:21.034Z,10.44
2019-03-03T17:02:47.434Z,10.36
2019-03-03T17:05:15.793Z,10.44
2019-03-03T17:07:42.148Z,10.49
2019-03-03T17:10:09.386Z,10.52
2019-03-03T17:12:35.910Z,10.48
2019-03-03T17:15:03.416Z,10.39
2019-03-03T17:17:30.722Z,10.44
2019-03-03T17:19:56.921Z,10.42
2019-03-03T17:22:23.079Z,10.48
2019-03-03T17:24:49.444Z,10.42
2019-03-03T17:27:15.697Z,10.48
2019-03-03T17:29:42.086Z,10.49
2019-03-03T17:32:08.402Z,10.47
2019-03-03T17:34:34.718Z,10.52
2019-03-03T17:37:01.097Z,10.51
2019-03-03T17:39:27.397Z,10.47
2019-03-03T17:41:53.823Z,10.63
2019-03-03T17:44:20.098Z,10.52
2019-03-03T17:46:46.317Z,10.50
2019-03-03T17:49:12.642Z,10.56
2019-03-03T17:51:40.066Z,10.58
2019-03-03T17:54:06.399Z,10.54
2019-03-03T17:56:33.106Z,10.52
2019-03-03T17:58:59.358Z,10.49
2019-03-03T18:01:25.714Z,10.44
2019-03-03T18:03:52.221Z,10.47
2019-03-03T18:06:18.596Z,10.61
2019-03-03T18:08:44.872Z,10.57
2019-03-03T18:11:11.324Z,10.60
2019-03-03T18:13:37.650Z,10.57
2019-03-03T18:16:04.034Z,10.59
2019-03-03T18:18:30.382Z,10.56
2019-03-03T18:20:56.714Z,10.57
2019-03-03T18:23:23.043Z,10.67
2019-03-03T18:25:49.262Z,10.71
2019-03-03T18:28:15.568Z,10.76
2019-03-03T18:30:41.916Z,10.73
2019-03-03T18:33:08.403Z,10.76
2019-03-03T18:35:34.743Z,10.75
2019-03-03T18:38:01.123Z,10.74
2019-03-03T18:40:27.706Z,10.73
2019-03-03T18:42:54.236Z,10.78
2019-03-03T18:45:21.662Z,10.76
2019-03-03T18:47:48.219Z,10.72
2019-03-03T18:50:16.221Z,10.76
2019-03-03T18:52:42.667Z,10.80
2019-03-03T18:55:10.094Z,10.79
2019-03-03T18:57:36.635Z,10.71
2019-03-03T19:00:06.711Z,10.83
2019-03-03T19:02:33.151Z,10.78
2019-03-03T19:05:00.512Z,10.86
2019-03-03T19:07:26.995Z,10.83
2019-03-03T19:09:53.306Z,10.88
2019-03-03T19:12:19.928Z,10.83
2019-03-03T19:14:46.243Z,10.86
2019-03-03T19:17:12.513Z,10.78
2019-03-03T19:19:38.942Z,10.75
2019-03-03T19:22:05.379Z,10.75
2019-03-03T19:24:31.969Z,10.71
2019-03-03T19:26:59.449Z,10.80
2019-03-03T19:29:25.937Z,10.84
2019-03-03T19:31:52.294Z,10.82
2019-03-03T19:34:18.666Z,10.89
2019-03-03T19:36:45.870Z,10.82
2019-03-03T19:39:12.106Z,10.81
2019-03-03T19:41:40.210Z,10.78
2019-03-03T19:44:06.602Z,10.79
2019-03-03T19:46:32.972Z,10.83
2019-03-03T19:48:59.451Z,10.75
2019-03-03T19:51:25.716Z,10.79
2019-03-03T19:53:52.281Z,10.86
2019-03-03T19:56:18.661Z,10.84
2019-03-03T19:58:44.950Z,10.88
2019-03-03T20:01:11.429Z,10.87
2019-03-03T20:03:37.695Z,10.89
2019-03-03T20:06:04.162Z,10.94
2019-03-03T20:08:30.513Z,10.81
2019-03-03T20:10:56.997Z,10.80
2019-03-03T20:13:23.474Z,10.84
2019-03-03T20:15:49.916Z,10.89
2019-03-03T20:18:16.186Z,10.92
2019-03-03T20:20:42.663Z,10.86
2019-03-03T20:23:09.025Z,10.90
2019-03-03T20:25:35.483Z,10.84
2019-03-03T20:28:02.252Z,10.82
2019-03-03T20:30:28.780Z,10.91
2019-03-03T20:32:55.355Z,10.96
2019-03-03T20:35:21.848Z,10.96
2019-03-03T20:37:48.350Z,10.98
2019-03-03T20:40:26.020Z,11.03
2019-03-03T20:42:53.413Z,11.02
2019-03-03T20:45:22.736Z,11.08
2019-03-03T20:47:48.965Z,11.05
2019-03-03T20:50:18.135Z,11.07
2019-03-03T20:52:44.466Z,11.08
2019-03-03T20:55:13.016Z,11.21
2019-03-03T20:57:39.506Z,11.22
2019-03-03T21:00:13.633Z,11.31
2019-03-03T21:02:39.970Z,11.27
2019-03-03T21:05:07.549Z,11.22
2019-03-03T21:07:34.011Z,11.33
2019-03-03T21:10:00.403Z,11.24
2019-03-03T21:12:27.998Z,11.22
2019-03-03T21:14:54.202Z,11.17
2019-03-03T21:17:20.531Z,11.20
2019-03-03T21:19:46.867Z,11.17
2019-03-03T21:22:13.116Z,11.23
2019-03-03T21:24:39.242Z,11.24
2019-03-03T21:27:05.479Z,11.22
2019-03-03T21:29:31.606Z,11.33
2019-03-03T21:31:57.960Z,11.32
2019-03-03T21:34:24.383Z,11.41
2019-03-03T21:36:50.648Z,11.37
2019-03-03T21:39:16.839Z,11.37
2019-03-03T21:41:43.327Z,11.31
2019-03-03T21:44:09.603Z,11.34
2019-03-03T21:46:35.915Z,11.37
2019-03-03T21:49:02.385Z,11.36
2019-03-03T21:51:29.625Z,11.37
2019-03-03T21:53:55.828Z,11.28
2019-03-03T21:56:22.202Z,11.28
2019-03-03T21:58:48.535Z,11.28
2019-03-03T22:01:14.885Z,11.25
2019-03-03T22:03:41.155Z,11.26
2019-03-03T22:06:07.591Z,11.24
2019-03-03T22:08:34.041Z,11.31
2019-03-03T22:11:00.367Z,11.19
2019-03-03T22:13:26.718Z,11.18
2019-03-03T22:15:53.050Z,11.05
2019-03-03T22:18:19.287Z,11.15
2019-03-03T22:20:45.725Z,10.98
2019-03-03T22:23:13.077Z,11.13
2019-03-03T22:25:39.418Z,10.99
2019-03-03T22:28:05.650Z,11.05
2019-03-03T22:30:31.793Z,11.05
2019-03-03T22:32:58.154Z,11.10
2019-03-03T22:35:24.410Z,11.01
2019-03-03T22:37:51.041Z,11.03
2019-03-03T22:40:18.905Z,10.96
2019-03-03T22:42:47.942Z,11.06
2019-03-03T22:45:15.373Z,10.99
2019-03-03T22:47:41.598Z,10.96
2019-03-03T22:50:10.181Z,11.02
2019-03-03T22:52:36.334Z,11.07
2019-03-03T22:55:11.879Z,11.09
2019-03-03T22:57:38.180Z,11.03
2019-03-03T23:00:40.094Z,11.08
2019-03-03T23:03:08.456Z,11.02
2019-03-03T23:06:08.920Z,11.07
2019-03-03T23:08:53.989Z,11.09
2019-03-03T23:11:24.030Z,11.19
2019-03-03T23:13:56.716Z,11.20
2019-03-03T23:16:36.321Z,11.20
2019-03-03T23:19:45.815Z,11.15
2019-03-03T23:22:29.052Z,11.17
2019-03-03T23:25:13.666Z,11.22
2019-03-03T23:27:40.483Z,11.13
2019-03-03T23:30:08.565Z,11.27
2019-03-03T23:32:34.765Z,11.28
2019-03-03T23:35:08.388Z,11.24
2019-03-03T23:37:34.706Z,11.36
2019-03-03T23:40:05.465Z,11.34
2019-03-03T23:42:34.846Z,11.30
2019-03-03T23:45:06.479Z,11.28
2019-03-03T23:47:34.622Z,11.32
2019-03-03T23:50:06.069Z,11.34
2019-03-03T23:52:34.273Z,11.42
2019-03-03T23:55:05.687Z,11.43
2019-03-03T23:57:31.987Z,11.48
2019-03-03T23:59:58.202Z,11.48
